Time;durP1;ratioP1;P1;durP2;ratioP2;P2;SDS_P1;SDS_P2;PMS_P1;PMS_P2;Temp;Humidity;BMP_temperature;BMP_pressure;BME280_temperature;BME280_humidity;BME280_pressure;Samples;Min_cycle;Max_cycle;Signal;HPM_P1;HPM_P2
2024/02/13 00:00:26;;;;;;;25.60;17.25;;;7.20;99.90;;;;;;2052926;28;20035;-73
2024/02/13 00:01:29;;;;;;;28.98;17.70;;;7.20;99.90;;;;;;2058648;28;20038;-77
2024/02/13 00:02:29;;;;;;;30.45;18.33;;;7.20;99.90;;;;;;2057684;28;20030;-77
2024/02/13 00:03:30;;;;;;;27.33;17.23;;;7.20;99.90;;;;;;2059742;28;20955;-77
2024/02/13 00:04:32;;;;;;;25.98;16.77;;;7.20;99.90;;;;;;2060083;28;20037;-76
2024/02/13 00:05:33;;;;;;;29.25;17.55;;;7.20;99.90;;;;;;2060221;28;20037;-77
2024/02/13 00:06:34;;;;;;;26.27;17.10;;;7.20;99.90;;;;;;2057341;28;20098;-77
2024/02/13 00:07:36;;;;;;;29.23;17.27;;;7.20;99.90;;;;;;2056430;28;20068;-77
2024/02/13 00:08:36;;;;;;;27.90;16.92;;;7.20;99.90;;;;;;2060152;28;20574;-77
2024/02/13 00:09:38;;;;;;;29.65;17.50;;;7.20;99.90;;;;;;2052346;28;20116;-77
2024/02/13 00:10:40;;;;;;;26.17;16.55;;;7.10;99.90;;;;;;2048434;28;20042;-77
2024/02/13 00:11:41;;;;;;;26.52;17.15;;;7.10;99.90;;;;;;2056924;28;20634;-74
2024/02/13 00:12:41;;;;;;;26.65;17.75;;;7.10;99.90;;;;;;2060707;28;20829;-76
2024/02/13 00:13:45;;;;;;;27.75;17.40;;;7.10;99.90;;;;;;2060440;28;20030;-78
2024/02/13 00:14:48;;;;;;;25.83;17.08;;;7.10;99.90;;;;;;2060307;28;20026;-78
2024/02/13 00:15:49;;;;;;;27.50;17.30;;;7.10;99.90;;;;;;2060774;28;20085;-77
2024/02/13 00:16:49;;;;;;;26.40;17.88;;;7.10;99.90;;;;;;2062643;28;20106;-78
2024/02/13 00:17:51;;;;;;;26.65;17.13;;;7.00;99.90;;;;;;2053047;28;20611;-77
2024/02/13 00:18:51;;;;;;;26.52;17.33;;;7.00;99.90;;;;;;2056717;28;20034;-77
2024/02/13 00:19:53;;;;;;;29.67;17.85;;;7.00;99.90;;;;;;2060437;28;20038;-77
2024/02/13 00:20:56;;;;;;;28.52;17.27;;;7.00;99.90;;;;;;2056517;28;20092;-76
2024/02/13 00:21:57;;;;;;;26.92;16.45;;;6.90;99.90;;;;;;2060350;28;20073;-78
2024/02/13 00:22:59;;;;;;;28.33;16.90;;;6.90;99.90;;;;;;2059172;28;20494;-77
2024/02/13 00:24:00;;;;;;;26.38;16.92;;;6.90;99.90;;;;;;2057373;28;20026;-77
2024/02/13 00:25:00;;;;;;;27.85;16.48;;;6.90;99.90;;;;;;2059092;28;20026;-78
2024/02/13 00:26:01;;;;;;;27.35;16.50;;;6.90;99.90;;;;;;2056792;28;20022;-77
2024/02/13 00:27:03;;;;;;;26.38;16.83;;;6.90;99.90;;;;;;2053976;28;20033;-76
2024/02/13 00:28:04;;;;;;;26.50;16.52;;;6.90;99.90;;;;;;2060356;28;20033;-78
2024/02/13 00:29:04;;;;;;;27.38;17.25;;;6.90;99.90;;;;;;2050160;28;20048;-78
2024/02/13 00:30:06;;;;;;;25.77;16.17;;;6.90;99.90;;;;;;2057839;28;20034;-76
2024/02/13 00:31:07;;;;;;;25.77;16.08;;;6.90;99.90;;;;;;2050993;28;20057;-77
2024/02/13 00:32:07;;;;;;;26.83;16.38;;;6.90;99.90;;;;;;2060443;28;20650;-77
2024/02/13 00:33:08;;;;;;;29.50;16.95;;;6.90;99.90;;;;;;2058362;28;20062;-77
2024/02/13 00:34:08;;;;;;;28.25;16.77;;;6.90;99.90;;;;;;2052856;28;20137;-76
2024/02/13 00:35:09;;;;;;;23.65;15.82;;;6.90;99.90;;;;;;2056942;28;20072;-77
2024/02/13 00:36:11;;;;;;;25.30;16.35;;;6.90;99.90;;;;;;2054714;28;20039;-77
2024/02/13 00:37:12;;;;;;;26.45;16.17;;;6.90;99.90;;;;;;2060793;28;20042;-77
2024/02/13 00:38:15;;;;;;;27.48;15.80;;;6.90;99.90;;;;;;2059339;28;20487;-76
2024/02/13 00:39:17;;;;;;;25.48;16.08;;;6.80;99.90;;;;;;2059656;28;20191;-77
2024/02/13 00:40:17;;;;;;;27.17;16.05;;;6.80;99.90;;;;;;2060797;28;20034;-77
2024/02/13 00:41:18;;;;;;;27.15;16.17;;;6.80;99.90;;;;;;2055890;28;20579;-77
2024/02/13 00:42:19;;;;;;;26.95;15.88;;;6.80;99.90;;;;;;2059792;28;20443;-77
2024/02/13 00:43:20;;;;;;;25.73;16.20;;;6.80;99.90;;;;;;2051762;28;20030;-77
2024/02/13 00:44:21;;;;;;;26.95;16.42;;;6.70;99.90;;;;;;2056165;28;20041;-76
2024/02/13 00:45:21;;;;;;;27.13;16.48;;;6.70;99.90;;;;;;2060784;28;20022;-77
2024/02/13 00:46:22;;;;;;;26.08;16.38;;;6.70;99.90;;;;;;2052832;28;20023;-77
2024/02/13 00:47:23;;;;;;;27.00;16.58;;;6.70;99.90;;;;;;2057080;28;20395;-77
2024/02/13 00:48:26;;;;;;;26.35;16.67;;;6.70;99.90;;;;;;2060580;28;20603;-77
2024/02/13 00:49:28;;;;;;;26.63;16.52;;;6.60;99.90;;;;;;2059555;28;20117;-77
2024/02/13 00:50:28;;;;;;;26.35;16.75;;;6.60;99.90;;;;;;2056346;28;20034;-77
2024/02/13 00:51:29;;;;;;;27.98;16.38;;;6.60;99.90;;;;;;2056684;28;20027;-77
2024/02/13 00:52:30;;;;;;;28.83;16.40;;;6.60;99.90;;;;;;2061497;28;20539;-76
2024/02/13 00:53:31;;;;;;;24.13;16.20;;;6.60;99.90;;;;;;2055876;28;20480;-76
2024/02/13 00:54:31;;;;;;;24.42;16.02;;;6.60;99.90;;;;;;2059973;28;20484;-76
2024/02/13 00:55:32;;;;;;;27.52;16.77;;;6.60;99.90;;;;;;2060191;28;20073;-76
2024/02/13 00:56:33;;;;;;;29.25;17.13;;;6.50;99.90;;;;;;2056707;28;20038;-76
2024/02/13 00:57:34;;;;;;;28.42;16.40;;;6.50;99.90;;;;;;2060171;28;20027;-76
2024/02/13 00:58:36;;;;;;;27.60;16.45;;;6.50;99.90;;;;;;2052526;28;20053;-78
2024/02/13 00:59:36;;;;;;;27.13;16.30;;;6.50;99.90;;;;;;2059859;28;20018;-77
2024/02/13 01:00:39;;;;;;;28.27;16.55;;;6.50;99.90;;;;;;2059693;28;20507;-77
2024/02/13 01:01:40;;;;;;;26.60;16.60;;;6.50;99.90;;;;;;2059554;28;20436;-78
2024/02/13 01:02:40;;;;;;;24.67;15.30;;;6.50;99.90;;;;;;2060592;28;20026;-77
2024/02/13 01:03:41;;;;;;;25.73;15.82;;;6.50;99.90;;;;;;2054444;28;20027;-77
2024/02/13 01:04:41;;;;;;;25.42;15.75;;;6.50;99.90;;;;;;2053563;28;20031;-77
2024/02/13 01:05:43;;;;;;;27.67;15.88;;;6.60;99.90;;;;;;2056609;28;20046;-77
2024/02/13 01:06:43;;;;;;;26.23;16.08;;;6.50;99.90;;;;;;2056455;28;20475;-77
2024/02/13 01:07:44;;;;;;;27.10;15.98;;;6.60;99.90;;;;;;2060854;28;20033;-77
2024/02/13 01:08:44;;;;;;;25.05;15.65;;;6.60;99.90;;;;;;2061323;28;20061;-77
2024/02/13 01:09:45;;;;;;;24.52;15.65;;;6.50;99.90;;;;;;2063355;28;20030;-77
2024/02/13 01:10:45;;;;;;;26.98;16.15;;;6.50;99.90;;;;;;2058795;28;20026;-77
2024/02/13 01:11:46;;;;;;;27.15;15.45;;;6.50;99.90;;;;;;2060322;28;20030;-78
2024/02/13 01:12:46;;;;;;;29.08;16.38;;;6.60;99.90;;;;;;2060702;28;20022;-77
2024/02/13 01:13:47;;;;;;;26.67;16.48;;;6.60;99.90;;;;;;2058806;28;20235;-77
2024/02/13 01:14:48;;;;;;;25.98;16.20;;;6.60;99.90;;;;;;2053974;28;20035;-77
2024/02/13 01:15:49;;;;;;;27.20;16.25;;;6.50;99.90;;;;;;2054278;28;20026;-77
2024/02/13 01:16:49;;;;;;;27.85;16.40;;;6.50;99.90;;;;;;2050919;28;20030;-77
2024/02/13 01:17:50;;;;;;;24.77;15.52;;;6.50;99.90;;;;;;2059910;28;20053;-77
2024/02/13 01:18:51;;;;;;;26.02;16.27;;;6.50;99.90;;;;;;2047624;28;20862;-76
2024/02/13 01:19:52;;;;;;;28.73;16.27;;;6.50;99.90;;;;;;2059828;28;20026;-76
2024/02/13 01:20:52;;;;;;;27.35;17.02;;;6.40;99.90;;;;;;2059391;28;20463;-76
2024/02/13 01:21:53;;;;;;;28.73;16.63;;;6.40;99.90;;;;;;2047525;28;20043;-77
2024/02/13 01:22:56;;;;;;;28.83;16.73;;;6.30;99.90;;;;;;2056230;28;20098;-76
2024/02/13 01:23:56;;;;;;;27.90;16.45;;;6.30;99.90;;;;;;2059635;28;20034;-76
2024/02/13 01:24:58;;;;;;;26.75;16.67;;;6.30;99.90;;;;;;2059654;28;20030;-77
2024/02/13 01:25:59;;;;;;;25.48;16.23;;;6.30;99.90;;;;;;2060748;28;20037;-77
2024/02/13 01:26:59;;;;;;;27.33;16.30;;;6.30;99.90;;;;;;2059513;28;20029;-77
2024/02/13 01:28:00;;;;;;;28.10;16.98;;;6.20;99.90;;;;;;2059606;28;20415;-77
2024/02/13 01:29:00;;;;;;;31.08;17.35;;;6.20;99.90;;;;;;2055648;28;20101;-77
2024/02/13 01:30:01;;;;;;;29.45;17.27;;;6.20;99.90;;;;;;2059349;28;20030;-76
2024/02/13 01:31:02;;;;;;;27.27;16.38;;;6.20;99.90;;;;;;2058630;28;20034;-76
2024/02/13 01:32:04;;;;;;;27.60;17.05;;;6.20;99.90;;;;;;2057539;28;20033;-77
2024/02/13 01:33:04;;;;;;;33.53;16.98;;;6.10;99.90;;;;;;2056578;28;20094;-76
2024/02/13 01:34:07;;;;;;;29.33;17.27;;;6.10;99.90;;;;;;2058778;28;20441;-76
2024/02/13 01:35:08;;;;;;;28.45;17.55;;;6.10;99.90;;;;;;2056948;28;20174;-76
2024/02/13 01:36:10;;;;;;;29.42;17.23;;;6.10;99.90;;;;;;2059621;28;20050;-77
2024/02/13 01:37:10;;;;;;;27.40;16.63;;;6.00;99.90;;;;;;2049889;28;20031;-76
2024/02/13 01:38:11;;;;;;;29.65;17.40;;;6.00;99.90;;;;;;2059233;28;20045;-76
2024/02/13 01:39:12;;;;;;;28.95;17.48;;;6.00;99.90;;;;;;2059101;28;20065;-76
2024/02/13 01:40:16;;;;;;;30.17;17.20;;;6.00;99.90;;;;;;2056022;28;20058;-77
2024/02/13 01:41:16;;;;;;;28.05;16.60;;;6.00;99.90;;;;;;2059414;28;20058;-77
2024/02/13 01:42:17;;;;;;;29.98;17.00;;;6.00;99.90;;;;;;2059428;28;20381;-77
2024/02/13 01:43:17;;;;;;;29.00;16.98;;;6.00;99.90;;;;;;2056362;28;20539;-76
2024/02/13 01:44:18;;;;;;;28.50;17.27;;;6.00;99.90;;;;;;2058942;28;20045;-76
2024/02/13 01:45:18;;;;;;;28.40;17.27;;;6.00;99.90;;;;;;2059416;28;20038;-77
2024/02/13 01:46:20;;;;;;;29.08;17.50;;;6.00;99.90;;;;;;2060481;28;20057;-76
2024/02/13 01:47:21;;;;;;;29.80;16.73;;;6.00;99.90;;;;;;2058041;28;20137;-77
2024/02/13 01:48:25;;;;;;;27.17;16.75;;;6.00;99.90;;;;;;2057137;28;20046;-77
2024/02/13 01:49:28;;;;;;;27.73;17.30;;;6.00;99.90;;;;;;2056040;28;20118;-77
2024/02/13 01:50:28;;;;;;;29.35;17.38;;;5.90;99.90;;;;;;2054701;28;20048;-75
2024/02/13 01:51:32;;;;;;;28.17;17.38;;;5.90;99.90;;;;;;2056037;28;20066;-75
2024/02/13 01:52:35;;;;;;;29.77;17.70;;;5.90;99.90;;;;;;2055512;28;20053;-77
2024/02/13 01:53:36;;;;;;;31.75;17.23;;;5.90;99.90;;;;;;2058984;28;20038;-77
2024/02/13 01:54:36;;;;;;;31.20;17.98;;;5.90;99.90;;;;;;2059335;28;20065;-77
2024/02/13 01:55:38;;;;;;;27.58;17.00;;;5.90;99.90;;;;;;2055470;28;20043;-77
2024/02/13 01:56:41;;;;;;;28.92;17.25;;;5.90;99.90;;;;;;2060190;28;20061;-77
2024/02/13 01:57:43;;;;;;;29.13;17.95;;;5.90;99.90;;;;;;2060030;28;20121;-77
2024/02/13 01:58:43;;;;;;;30.77;17.35;;;5.90;99.90;;;;;;2058901;28;20066;-77
2024/02/13 01:59:44;;;;;;;29.80;17.40;;;5.90;99.90;;;;;;2055643;28;20085;-77
2024/02/13 02:00:47;;;;;;;30.52;18.20;;;5.90;99.90;;;;;;2059755;28;20026;-76
2024/02/13 02:01:48;;;;;;;31.58;18.23;;;5.90;99.90;;;;;;2056502;28;20054;-76
2024/02/13 02:02:49;;;;;;;28.50;16.90;;;5.90;99.90;;;;;;2055248;28;20031;-77
2024/02/13 02:03:51;;;;;;;31.08;17.60;;;5.90;99.90;;;;;;2055777;28;20038;-76
2024/02/13 02:04:53;;;;;;;30.33;18.10;;;5.90;99.90;;;;;;2056187;28;20038;-76
2024/02/13 02:05:54;;;;;;;27.85;17.02;;;5.80;99.90;;;;;;2060184;28;20531;-77
2024/02/13 02:06:55;;;;;;;27.55;17.23;;;5.90;99.90;;;;;;2055324;28;20034;-77
2024/02/13 02:07:56;;;;;;;30.65;17.85;;;5.90;99.90;;;;;;2059026;28;20109;-77
2024/02/13 02:08:57;;;;;;;31.08;17.50;;;5.80;99.90;;;;;;2059947;28;20042;-77
2024/02/13 02:09:58;;;;;;;30.45;18.05;;;5.80;99.90;;;;;;2059701;28;20057;-76
2024/02/13 02:10:58;;;;;;;31.90;19.05;;;5.80;99.90;;;;;;2057217;28;20023;-76
2024/02/13 02:11:59;;;;;;;31.30;18.45;;;5.80;99.90;;;;;;2061213;28;20658;-77
2024/02/13 02:13:01;;;;;;;31.83;18.70;;;5.80;99.90;;;;;;2057481;28;20031;-77
2024/02/13 02:14:02;;;;;;;33.20;18.33;;;5.80;99.90;;;;;;2056421;28;20041;-76
2024/02/13 02:15:04;;;;;;;31.45;18.25;;;5.80;99.90;;;;;;2056080;28;20023;-76
2024/02/13 02:16:07;;;;;;;33.75;18.17;;;5.80;99.90;;;;;;2058856;28;20049;-77
2024/02/13 02:17:08;;;;;;;31.15;17.88;;;5.70;99.90;;;;;;2051414;28;20034;-77
2024/02/13 02:18:10;;;;;;;31.52;17.85;;;5.70;99.90;;;;;;2053202;28;20034;-77
2024/02/13 02:19:10;;;;;;;35.85;18.88;;;5.70;99.90;;;;;;2059469;28;20039;-77
2024/02/13 02:20:12;;;;;;;32.28;18.00;;;5.70;99.90;;;;;;2059809;28;20034;-77
2024/02/13 02:21:14;;;;;;;32.70;18.25;;;5.70;99.90;;;;;;2059738;28;20025;-77
2024/02/13 02:22:14;;;;;;;30.65;17.85;;;5.60;99.90;;;;;;2055742;28;20392;-77
2024/02/13 02:23:18;;;;;;;32.90;18.08;;;5.60;99.90;;;;;;2056505;28;20026;-76
2024/02/13 02:24:19;;;;;;;32.15;18.05;;;5.60;99.90;;;;;;2055277;28;20392;-77
2024/02/13 02:25:21;;;;;;;31.67;17.52;;;5.60;99.90;;;;;;2052081;28;20048;-71
2024/02/13 02:26:23;;;;;;;31.75;18.58;;;5.60;99.90;;;;;;2061584;28;20034;-78
2024/02/13 02:27:23;;;;;;;29.85;17.85;;;5.70;99.90;;;;;;2059802;28;20480;-78
2024/02/13 02:28:24;;;;;;;30.88;18.48;;;5.70;99.90;;;;;;2060052;28;20022;-78
2024/02/13 02:29:25;;;;;;;33.85;19.15;;;5.70;99.90;;;;;;2057261;28;20445;-75
2024/02/13 02:30:26;;;;;;;30.70;18.00;;;5.70;99.90;;;;;;2059492;28;20023;-77
2024/02/13 02:31:26;;;;;;;30.17;17.83;;;5.80;99.90;;;;;;2057525;28;20109;-75
2024/02/13 02:32:28;;;;;;;29.17;16.85;;;5.80;99.90;;;;;;2057959;28;20058;-77
2024/02/13 02:33:28;;;;;;;34.75;18.45;;;5.80;99.90;;;;;;2057475;28;20027;-77
2024/02/13 02:34:29;;;;;;;30.75;17.67;;;5.80;99.90;;;;;;2058910;28;20031;-77
2024/02/13 02:35:30;;;;;;;32.00;18.20;;;5.80;99.90;;;;;;2058356;28;20785;-76
2024/02/13 02:36:30;;;;;;;29.45;17.40;;;5.80;99.90;;;;;;2058973;28;20037;-78
2024/02/13 02:37:31;;;;;;;33.15;18.10;;;5.80;99.90;;;;;;2059341;28;20125;-78
2024/02/13 02:38:38;;;;;;;32.00;18.45;;;5.80;99.90;;;;;;2059452;28;20133;-77
2024/02/13 02:39:38;;;;;;;31.65;17.98;;;5.80;99.90;;;;;;2058784;28;20026;-77
2024/02/13 02:40:39;;;;;;;29.40;17.38;;;5.80;99.90;;;;;;2059024;28;20030;-73
2024/02/13 02:41:39;;;;;;;32.42;17.20;;;5.80;99.90;;;;;;2059865;28;20108;-73
2024/02/13 02:42:42;;;;;;;29.10;17.33;;;5.80;99.90;;;;;;2058811;28;20401;-73
2024/02/13 02:43:43;;;;;;;30.25;17.10;;;5.80;99.90;;;;;;2057508;28;20392;-72
2024/02/13 02:44:44;;;;;;;30.77;17.45;;;5.90;99.90;;;;;;2051446;28;20488;-73
2024/02/13 02:45:45;;;;;;;34.50;18.55;;;5.90;99.90;;;;;;2043358;28;20055;-72
2024/02/13 02:46:47;;;;;;;28.95;17.45;;;6.00;99.90;;;;;;2059292;28;20137;-73
2024/02/13 02:47:48;;;;;;;30.63;17.13;;;6.00;99.90;;;;;;2059772;28;20089;-73
2024/02/13 02:48:48;;;;;;;30.35;18.02;;;6.10;99.90;;;;;;2059537;28;20571;-73
2024/02/13 02:49:49;;;;;;;29.58;17.40;;;6.10;99.90;;;;;;2057502;28;20658;-72
2024/02/13 02:50:49;;;;;;;30.65;17.90;;;6.10;99.90;;;;;;2057332;28;20565;-72
2024/02/13 02:51:50;;;;;;;30.70;18.10;;;6.10;99.90;;;;;;2059283;28;20050;-72
2024/02/13 02:52:54;;;;;;;29.45;18.08;;;6.20;99.90;;;;;;2059669;28;20113;-73
2024/02/13 02:53:54;;;;;;;33.40;18.38;;;6.20;99.90;;;;;;2058294;28;20030;-72
2024/02/13 02:54:55;;;;;;;29.35;18.33;;;6.30;99.90;;;;;;2059854;28;20026;-73
2024/02/13 02:55:55;;;;;;;29.30;18.20;;;6.30;99.90;;;;;;2058990;28;20057;-72
2024/02/13 02:56:56;;;;;;;28.85;17.10;;;6.20;99.90;;;;;;2058868;28;20022;-72
2024/02/13 02:57:57;;;;;;;33.33;17.98;;;6.20;99.90;;;;;;2059347;28;20037;-73
2024/02/13 02:58:57;;;;;;;30.63;17.38;;;6.20;99.90;;;;;;2050851;28;20034;-72
2024/02/13 02:59:58;;;;;;;27.77;17.50;;;6.20;99.90;;;;;;2050572;28;20071;-73
2024/02/13 03:00:59;;;;;;;29.73;17.75;;;6.20;99.90;;;;;;2058578;28;20034;-72
2024/02/13 03:02:01;;;;;;;28.00;17.52;;;6.20;99.90;;;;;;2056940;28;20081;-72
2024/02/13 03:03:02;;;;;;;27.73;17.98;;;6.20;99.90;;;;;;2056050;28;20495;-71
2024/02/13 03:04:03;;;;;;;29.13;17.58;;;6.20;99.90;;;;;;2051078;28;20022;-71
2024/02/13 03:05:05;;;;;;;29.58;17.90;;;6.30;99.90;;;;;;2059170;28;20137;-72
2024/02/13 03:06:05;;;;;;;29.58;17.52;;;6.20;99.90;;;;;;2059610;28;20475;-72
2024/02/13 03:07:08;;;;;;;29.92;18.23;;;6.30;99.90;;;;;;2059467;28;20039;-72
2024/02/13 03:08:08;;;;;;;31.17;17.75;;;6.30;99.90;;;;;;2059282;28;20057;-72
2024/02/13 03:09:09;;;;;;;29.42;17.60;;;6.30;99.90;;;;;;2059284;28;20435;-72
2024/02/13 03:10:10;;;;;;;28.48;17.02;;;6.30;99.90;;;;;;2059705;28;20513;-72
2024/02/13 03:11:11;;;;;;;28.88;17.27;;;6.30;99.90;;;;;;2059404;28;20022;-74
2024/02/13 03:12:11;;;;;;;29.58;17.38;;;6.30;99.90;;;;;;2059251;28;20492;-72
2024/02/13 03:13:13;;;;;;;30.92;17.98;;;6.30;99.90;;;;;;2059417;28;20499;-74
2024/02/13 03:14:14;;;;;;;30.27;17.88;;;6.30;99.90;;;;;;2058976;28;20677;-73
2024/02/13 03:15:14;;;;;;;29.27;17.05;;;6.30;99.90;;;;;;2059159;28;20038;-72
2024/02/13 03:16:15;;;;;;;29.15;16.90;;;6.40;99.90;;;;;;2059481;28;20026;-72
2024/02/13 03:17:15;;;;;;;25.90;16.35;;;6.40;99.90;;;;;;2057467;28;20034;-72
2024/02/13 03:18:17;;;;;;;31.05;18.13;;;6.40;99.90;;;;;;2059259;28;20045;-73
2024/02/13 03:19:18;;;;;;;29.23;17.00;;;6.40;99.90;;;;;;2058757;28;20442;-71
2024/02/13 03:20:18;;;;;;;28.17;17.48;;;6.40;99.90;;;;;;2059369;28;20600;-73
2024/02/13 03:21:19;;;;;;;26.70;16.52;;;6.40;99.90;;;;;;2059335;28;20113;-72
2024/02/13 03:22:20;;;;;;;27.73;17.63;;;6.50;99.90;;;;;;2059318;28;20096;-72
2024/02/13 03:23:20;;;;;;;26.33;16.83;;;6.40;99.90;;;;;;2058992;28;20038;-72
2024/02/13 03:24:21;;;;;;;26.85;16.88;;;6.50;99.90;;;;;;2056542;28;20045;-72
2024/02/13 03:25:21;;;;;;;28.13;17.48;;;6.50;99.90;;;;;;2055877;28;20034;-73
2024/02/13 03:26:22;;;;;;;27.20;16.35;;;6.50;99.90;;;;;;2059068;28;20027;-73
2024/02/13 03:27:22;;;;;;;28.77;17.05;;;6.50;99.90;;;;;;2058550;28;20092;-72
2024/02/13 03:28:23;;;;;;;27.33;16.88;;;6.50;99.90;;;;;;2058598;28;21243;-73
2024/02/13 03:29:24;;;;;;;27.92;16.55;;;6.50;99.90;;;;;;2057603;28;20124;-73
2024/02/13 03:30:24;;;;;;;27.25;16.83;;;6.50;99.90;;;;;;2056404;28;21002;-72
2024/02/13 03:31:25;;;;;;;25.00;16.52;;;6.50;99.90;;;;;;2054237;28;20121;-73
2024/02/13 03:32:25;;;;;;;25.33;16.77;;;6.50;99.90;;;;;;2058954;28;20035;-73
2024/02/13 03:33:26;;;;;;;26.13;16.40;;;6.50;99.90;;;;;;2059180;28;20023;-73
2024/02/13 03:34:26;;;;;;;27.38;17.15;;;6.50;99.90;;;;;;2060608;28;20034;-73
2024/02/13 03:35:29;;;;;;;25.15;16.60;;;6.50;99.90;;;;;;2058093;28;20026;-73
2024/02/13 03:36:30;;;;;;;26.25;16.92;;;6.50;99.90;;;;;;2056537;28;20026;-74
2024/02/13 03:37:31;;;;;;;26.85;16.33;;;6.50;99.90;;;;;;2056422;28;20084;-73
2024/02/13 03:38:31;;;;;;;24.10;16.25;;;6.50;99.90;;;;;;2056305;28;20046;-73
2024/02/13 03:39:32;;;;;;;27.23;17.08;;;6.50;99.90;;;;;;2056626;28;20018;-72
2024/02/13 03:40:32;;;;;;;25.73;16.65;;;6.50;99.90;;;;;;2060166;28;20536;-76
2024/02/13 03:41:39;;;;;;;28.40;16.65;;;6.50;99.90;;;;;;2060519;28;20665;-77
2024/02/13 03:42:40;;;;;;;28.63;16.95;;;6.50;99.90;;;;;;2049215;28;20613;-77
2024/02/13 03:43:46;;;;;;;25.45;16.58;;;6.50;99.90;;;;;;2060260;28;20027;-77
2024/02/13 03:44:46;;;;;;;26.63;16.83;;;6.50;99.90;;;;;;2060506;28;20061;-76
2024/02/13 03:45:48;;;;;;;27.00;17.02;;;6.50;99.90;;;;;;2057019;28;20154;-77
2024/02/13 03:46:50;;;;;;;26.65;16.73;;;6.50;99.90;;;;;;2057185;28;20813;-77
2024/02/13 03:47:51;;;;;;;27.65;17.15;;;6.50;99.90;;;;;;2055316;28;20131;-76
2024/02/13 03:48:51;;;;;;;25.92;17.08;;;6.50;99.90;;;;;;2057940;28;20431;-77
2024/02/13 03:49:52;;;;;;;27.77;17.35;;;6.50;99.90;;;;;;2054768;28;20623;-76
2024/02/13 03:50:52;;;;;;;27.15;16.95;;;6.50;99.90;;;;;;2053205;28;20030;-77
2024/02/13 03:51:53;;;;;;;25.85;16.38;;;6.50;99.90;;;;;;2058085;28;20151;-76
2024/02/13 03:52:55;;;;;;;25.95;16.40;;;6.50;99.90;;;;;;2058529;28;20026;-76
2024/02/13 03:53:56;;;;;;;27.80;17.27;;;6.50;99.90;;;;;;2059095;28;20030;-77
2024/02/13 03:54:57;;;;;;;26.02;16.55;;;6.50;99.90;;;;;;2060920;28;20018;-76
2024/02/13 03:55:57;;;;;;;26.25;16.73;;;6.50;99.90;;;;;;2056323;28;20031;-76
2024/02/13 03:57:00;;;;;;;27.92;16.98;;;6.50;99.90;;;;;;2057923;28;20659;-77
2024/02/13 03:58:01;;;;;;;27.23;17.58;;;6.50;99.90;;;;;;2059677;28;20706;-78
2024/02/13 03:59:02;;;;;;;27.02;17.08;;;6.50;99.90;;;;;;2056779;28;20053;-77
2024/02/13 04:00:04;;;;;;;28.13;16.88;;;6.50;99.90;;;;;;2058783;28;20032;-77
2024/02/13 04:01:05;;;;;;;27.88;17.50;;;6.50;99.90;;;;;;2059623;28;20034;-77
2024/02/13 04:02:07;;;;;;;27.85;16.90;;;6.50;99.90;;;;;;2060730;28;20026;-78
2024/02/13 04:03:09;;;;;;;26.58;16.88;;;6.40;99.90;;;;;;2060850;28;20764;-76
2024/02/13 04:04:10;;;;;;;27.00;16.83;;;6.50;99.90;;;;;;2057480;28;20030;-77
2024/02/13 04:05:12;;;;;;;25.83;16.45;;;6.50;99.90;;;;;;2060829;28;20034;-77
2024/02/13 04:06:13;;;;;;;28.40;17.17;;;6.50;99.90;;;;;;2057031;28;20026;-77
2024/02/13 04:07:15;;;;;;;26.02;17.08;;;6.40;99.90;;;;;;2061060;28;20302;-77
2024/02/13 04:08:16;;;;;;;25.70;16.48;;;6.50;99.90;;;;;;2056784;28;20038;-76
2024/02/13 04:09:17;;;;;;;26.80;17.15;;;6.40;99.90;;;;;;2057021;28;20077;-78
2024/02/13 04:10:18;;;;;;;26.83;16.40;;;6.40;99.90;;;;;;2052497;28;20559;-76
2024/02/13 04:11:18;;;;;;;28.38;16.83;;;6.40;99.90;;;;;;2055904;28;20042;-77
2024/02/13 04:12:20;;;;;;;28.15;16.77;;;6.40;99.90;;;;;;2060274;28;20118;-77
2024/02/13 04:13:21;;;;;;;26.35;16.88;;;6.40;99.90;;;;;;2053784;28;20469;-78
2024/02/13 04:14:23;;;;;;;26.83;17.15;;;6.40;99.90;;;;;;2060901;28;20030;-78
2024/02/13 04:15:24;;;;;;;26.38;16.55;;;6.40;99.90;;;;;;2060794;28;20034;-77
2024/02/13 04:16:24;;;;;;;28.10;15.68;;;6.40;99.90;;;;;;2060610;28;20105;-77
2024/02/13 04:17:25;;;;;;;25.02;16.13;;;6.40;99.90;;;;;;2060816;28;20662;-76
2024/02/13 04:18:26;;;;;;;25.33;16.20;;;6.40;99.90;;;;;;2059497;28;20022;-76
2024/02/13 04:19:26;;;;;;;25.98;15.55;;;6.40;99.90;;;;;;2048190;28;20543;-76
2024/02/13 04:20:27;;;;;;;27.90;15.88;;;6.40;99.90;;;;;;2049020;28;20026;-78
2024/02/13 04:21:27;;;;;;;25.65;16.13;;;6.40;99.90;;;;;;2060189;28;20030;-75
2024/02/13 04:22:28;;;;;;;25.88;16.08;;;6.40;99.90;;;;;;2061274;28;20141;-76
2024/02/13 04:23:29;;;;;;;24.70;15.80;;;6.40;99.90;;;;;;2060092;28;20038;-76
2024/02/13 04:24:29;;;;;;;25.23;15.35;;;6.40;99.90;;;;;;2059819;28;20031;-75
2024/02/13 04:25:30;;;;;;;26.05;15.80;;;6.40;99.90;;;;;;2062703;28;20066;-74
2024/02/13 04:26:30;;;;;;;28.88;16.33;;;6.40;99.90;;;;;;2053393;28;20057;-76
2024/02/13 04:27:31;;;;;;;27.58;16.30;;;6.40;99.90;;;;;;2060163;28;20505;-76
2024/02/13 04:28:31;;;;;;;25.95;15.55;;;6.40;99.90;;;;;;2052465;28;20035;-76
2024/02/13 04:29:33;;;;;;;28.20;15.40;;;6.40;99.90;;;;;;2060120;28;20073;-76
2024/02/13 04:30:40;;;;;;;30.42;16.17;;;6.40;99.90;;;;;;2058439;28;20052;-76
2024/02/13 04:31:42;;;;;;;23.30;14.70;;;6.40;99.90;;;;;;2051686;28;20035;-75
2024/02/13 04:32:43;;;;;;;24.63;15.20;;;6.40;99.90;;;;;;2060969;28;20380;-77
2024/02/13 04:33:44;;;;;;;24.83;15.32;;;6.40;99.90;;;;;;2056366;28;20034;-76
2024/02/13 04:34:45;;;;;;;24.77;14.80;;;6.30;99.90;;;;;;2048768;28;20062;-74
2024/02/13 04:35:47;;;;;;;26.80;15.30;;;6.30;99.90;;;;;;2056238;28;20041;-76
2024/02/13 04:36:47;;;;;;;23.95;14.95;;;6.30;99.90;;;;;;2058898;28;20030;-76
2024/02/13 04:37:50;;;;;;;24.73;14.75;;;6.30;99.90;;;;;;2057340;28;20034;-78
2024/02/13 04:38:51;;;;;;;22.40;14.65;;;6.30;99.90;;;;;;2052098;28;20047;-78
2024/02/13 04:39:52;;;;;;;22.33;14.27;;;6.30;99.90;;;;;;2059745;28;20026;-77
2024/02/13 04:40:53;;;;;;;24.67;14.70;;;6.30;99.90;;;;;;2060078;28;20037;-77
2024/02/13 04:41:53;;;;;;;22.70;14.38;;;6.30;99.90;;;;;;2060470;28;20046;-77
2024/02/13 04:42:54;;;;;;;22.73;14.27;;;6.30;99.90;;;;;;2060337;28;20412;-75
2024/02/13 04:43:55;;;;;;;22.40;13.82;;;6.30;99.90;;;;;;2056197;28;20037;-75
2024/02/13 04:44:55;;;;;;;21.60;13.25;;;6.30;99.90;;;;;;2056656;28;20034;-77
2024/02/13 04:45:56;;;;;;;22.20;14.05;;;6.30;99.90;;;;;;2060565;28;20026;-76
2024/02/13 04:46:56;;;;;;;21.90;13.30;;;6.30;99.90;;;;;;2060310;28;20030;-76
2024/02/13 04:47:58;;;;;;;21.85;13.55;;;6.20;99.90;;;;;;2053034;28;20034;-76
2024/02/13 04:48:59;;;;;;;22.92;14.38;;;6.20;99.90;;;;;;2060818;28;20026;-77
2024/02/13 04:50:03;;;;;;;22.27;13.70;;;6.20;99.90;;;;;;2060007;28;20427;-76
2024/02/13 04:51:06;;;;;;;22.52;13.38;;;6.20;99.90;;;;;;2053809;28;20785;-77
2024/02/13 04:52:11;;;;;;;22.50;14.20;;;6.20;99.90;;;;;;2060803;28;20688;-77
2024/02/13 04:53:15;;;;;;;20.23;13.38;;;6.20;99.90;;;;;;2060818;28;20035;-77
2024/02/13 04:54:15;;;;;;;21.67;14.52;;;6.10;99.90;;;;;;2060595;28;20058;-77
2024/02/13 04:55:16;;;;;;;24.42;14.18;;;6.10;99.90;;;;;;2059769;28;20231;-77
2024/02/13 04:56:17;;;;;;;23.02;14.20;;;6.20;99.90;;;;;;2049580;28;20174;-77
2024/02/13 04:57:18;;;;;;;23.13;14.18;;;6.20;99.90;;;;;;2058948;28;20037;-77
2024/02/13 04:58:20;;;;;;;22.92;14.15;;;6.20;99.90;;;;;;2051128;28;20089;-76
2024/02/13 04:59:22;;;;;;;22.80;13.27;;;6.20;99.90;;;;;;2059500;28;20039;-77
2024/02/13 05:00:28;;;;;;;22.58;14.10;;;6.20;99.90;;;;;;2059750;28;20117;-77
2024/02/13 05:01:29;;;;;;;22.63;14.48;;;6.20;99.90;;;;;;2052232;28;20686;-77
2024/02/13 05:02:32;;;;;;;23.40;14.13;;;6.20;99.90;;;;;;2060145;28;20037;-78
2024/02/13 05:07:19;;;;;;;22.95;13.55;;;6.20;99.90;;;;;;2062681;28;20445;-77
2024/02/13 05:07:44;;;;;;;25.48;14.70;;;6.20;99.90;;;;;;2059699;28;20034;-77
2024/02/13 05:08:45;;;;;;;20.35;13.35;;;6.20;99.90;;;;;;2056742;28;20101;-76
2024/02/13 05:09:46;;;;;;;22.55;14.60;;;6.20;99.90;;;;;;2058100;28;20042;-77
2024/02/13 05:10:48;;;;;;;22.08;14.55;;;6.20;99.90;;;;;;2059747;28;20057;-77
2024/02/13 05:11:49;;;;;;;22.77;13.80;;;6.20;99.90;;;;;;2058957;28;20030;-77
2024/02/13 05:12:49;;;;;;;21.20;14.07;;;6.20;99.90;;;;;;2059342;28;20593;-77
2024/02/13 05:13:50;;;;;;;21.42;13.35;;;6.10;99.90;;;;;;2060554;28;20034;-78
2024/02/13 05:14:52;;;;;;;19.85;12.80;;;6.10;99.90;;;;;;2060450;28;20062;-78
2024/02/13 05:15:54;;;;;;;22.75;13.02;;;6.10;99.90;;;;;;2056683;28;20035;-78
2024/02/13 05:16:54;;;;;;;21.60;14.02;;;6.10;99.90;;;;;;2057911;28;20041;-77